Phu Lien, Viet Nam

1:01 AM ICT on September 05, 2015 (GMT +0700)
Noibai International | | Change Station
CLOSE
Current Station
Airport
Location: Ha Noi,
Elevation: 36 ft
Nearby Weather Stations

Elev 36 ft 21.22 °N, 105.81 °E | Updated 31 minutes ago

Scattered Clouds
Scattered Clouds
82 °F
Feels Like 92 °F
N
6
Wind Variable Wind from ESE

Today
High -- | Low -- °F
--% Chance of Precip.
Yesterday
High -- | Low -- °F
Precip. -- in
5:38 AM 6:06 PM
Waning Gibbous, 57% visible
Pressure 29.86 in
Visibility 3.1 miles
Clouds Few 1000 ft
Few 2600 ft
Scattered Clouds 8300 ft
Heat Index 92 °F
Dew Point 79 °F
Humidity 89%
Rainfall 0.00 in
Snow Depth Not available.
UV 0 out of 12
Pollen Not available.
Air Quality Not available.
Flu Activity Not available.
METAR VVNB 041730Z 12005KT 5000 FEW010 FEW026CB SCT083 28/26 Q1011 NOSIG
Pressure 29.86 in
Visibility 3.1 miles
Clouds Few 1000 ft
Few 2600 ft
Scattered Clouds 8300 ft
Heat Index 92 °F
Dew Point 79 °F
Humidity 89%
Rainfall 0.00 in
Snow Depth Not available.
UV 0 out of 12
Pollen Not available.
Air Quality Not available.
Flu Activity Not available.
METAR VVNB 041730Z 12005KT 5000 FEW010 FEW026CB SCT083 28/26 Q1011 NOSIG

10-Day Weather Forecast

×

Almanac

Astronomy

Sep. 05, 2015 Rise Set
Actual Time
Civil Twilight
Nautical Twilight
Astronomical Twilight
Moon
Length of Visible Light
Length of Day
Tomorrow will be .
, % of the Moon is Illuminated

Today's Extremes

Country Highs Country Lows

Community

WunderPhotos

Upload Photos

1,852,253 photos uploaded!

WunderBlogs® & News

Nearby

Air Quality

  Air Quality AQ Index Pollutant
Not available.

Snow Depth

Station Depth Elevation

Earthquake Activity

City Distance Mag. Time & Date
Minimum magnitude displayed is 2.5.

Coastal Water Temperatures

Place Temperature

Stations

Nearby Weather Stations

Station Location Temp. Windchill Dew Point Humidity Wind Precip. Elev Updated Type